createdAt,value
2022-08-16T00:03:59.836Z,16.50
2022-08-16T00:08:37.064Z,16.50
2022-08-16T00:12:55.343Z,16.50
2022-08-16T00:17:19.270Z,16.50
2022-08-16T00:21:36.854Z,16.40
2022-08-16T00:26:33.438Z,16.40
2022-08-16T00:30:32.281Z,16.30
2022-08-16T00:34:52.695Z,16.40
2022-08-16T00:39:15.370Z,16.30
2022-08-16T00:43:40.731Z,16.30
2022-08-16T00:48:02.951Z,16.20
2022-08-16T00:52:45.821Z,16.20
2022-08-16T00:57:09.114Z,16.30
2022-08-16T01:01:28.996Z,16.20
2022-08-16T01:05:48.055Z,16.30
2022-08-16T01:10:05.816Z,16.20
2022-08-16T01:14:43.517Z,16.10
2022-08-16T01:19:13.813Z,16.10
2022-08-16T01:24:01.165Z,16.10
2022-08-16T01:28:20.802Z,16.10
2022-08-16T01:32:42.436Z,16.10
2022-08-16T01:37:07.327Z,16.10
2022-08-16T01:41:30.652Z,16.00
2022-08-16T01:45:48.659Z,16.00
2022-08-16T01:50:43.274Z,16.00
2022-08-16T01:54:53.461Z,15.90
2022-08-16T01:59:15.634Z,15.80
2022-08-16T02:03:34.443Z,15.70
2022-08-16T02:07:52.349Z,15.60
2022-08-16T02:12:40.183Z,15.50
2022-08-16T02:16:49.530Z,15.40
2022-08-16T02:21:07.764Z,15.40
2022-08-16T02:25:50.811Z,15.50
2022-08-16T02:30:08.524Z,15.50
2022-08-16T02:34:32.964Z,15.60
2022-08-16T02:38:52.130Z,15.70
2022-08-16T02:43:09.419Z,15.70
2022-08-16T02:47:26.587Z,15.70
2022-08-16T02:51:44.307Z,15.60
2022-08-16T02:56:05.569Z,15.70
2022-08-16T03:00:34.410Z,15.60
2022-08-16T03:04:53.277Z,15.60
2022-08-16T03:09:14.747Z,15.60
2022-08-16T03:13:32.581Z,16.10
2022-08-16T03:17:57.888Z,16.40
2022-08-16T03:22:19.306Z,16.60
2022-08-16T03:26:46.198Z,16.20
2022-08-16T03:31:03.706Z,15.80
2022-08-16T03:35:24.552Z,15.60
2022-08-16T03:39:56.211Z,15.40
2022-08-16T03:44:43.984Z,15.30
2022-08-16T03:48:51.303Z,15.20
2022-08-16T03:53:08.663Z,15.20
2022-08-16T03:57:31.973Z,15.20
2022-08-16T04:01:53.740Z,15.20
2022-08-16T04:06:11.234Z,15.20
2022-08-16T04:10:36.967Z,15.20
2022-08-16T04:14:55.253Z,15.20
2022-08-16T04:19:12.736Z,15.20
2022-08-16T04:23:30.025Z,15.20
2022-08-16T04:27:54.018Z,15.30
2022-08-16T04:32:11.632Z,15.30
2022-08-16T04:36:31.091Z,15.40
2022-08-16T04:40:50.035Z,15.40
2022-08-16T04:45:13.735Z,15.30
2022-08-16T04:49:38.415Z,15.30
2022-08-16T04:54:02.731Z,15.40
2022-08-16T04:58:44.541Z,15.50
2022-08-16T05:02:58.776Z,15.80
2022-08-16T05:07:20.554Z,16.10
2022-08-16T05:11:39.032Z,16.30
2022-08-16T05:15:56.294Z,16.50
2022-08-16T05:20:39.190Z,16.50
2022-08-16T05:24:55.117Z,16.50
2022-08-16T05:29:14.776Z,16.60
2022-08-16T05:33:32.561Z,17.00
2022-08-16T05:37:51.010Z,17.40
2022-08-16T05:42:08.251Z,17.60
2022-08-16T05:46:30.545Z,17.60
2022-08-16T05:50:52.886Z,17.80
2022-08-16T05:55:10.590Z,18.00
2022-08-16T05:59:29.508Z,18.10
2022-08-16T06:03:46.748Z,18.20
2022-08-16T06:08:05.247Z,18.40
2022-08-16T06:12:27.218Z,18.40
2022-08-16T06:16:50.941Z,18.50
2022-08-16T06:21:08.287Z,18.80
2022-08-16T06:25:36.258Z,18.80
2022-08-16T06:29:56.537Z,19.00
2022-08-16T06:34:55.555Z,19.10
2022-08-16T06:38:56.451Z,19.20
2022-08-16T06:43:14.034Z,19.50
2022-08-16T06:47:53.849Z,19.50
2022-08-16T06:52:58.018Z,19.50
2022-08-16T06:56:46.293Z,19.70
2022-08-16T07:01:04.871Z,20.00
2022-08-16T07:05:41.913Z,20.10
2022-08-16T07:09:59.548Z,20.30
2022-08-16T07:14:24.350Z,20.50
2022-08-16T07:19:01.033Z,20.60
2022-08-16T07:23:20.892Z,20.80
2022-08-16T07:27:56.185Z,21.00
2022-08-16T07:32:19.074Z,21.20
2022-08-16T07:36:57.061Z,21.20
2022-08-16T07:41:15.798Z,21.50
2022-08-16T07:45:33.725Z,22.10
2022-08-16T07:49:53.380Z,22.40
2022-08-16T07:54:21.295Z,22.30
2022-08-16T07:58:49.736Z,22.80
2022-08-16T08:03:12.784Z,23.60
2022-08-16T08:07:32.503Z,24.30
2022-08-16T08:11:59.965Z,25.10
2022-08-16T08:16:21.244Z,25.20
2022-08-16T08:20:38.314Z,25.80
2022-08-16T08:24:58.923Z,25.10
2022-08-16T08:29:17.210Z,25.30
2022-08-16T08:33:43.853Z,25.60
2022-08-16T08:38:08.237Z,26.10
2022-08-16T08:42:26.813Z,27.50
2022-08-16T08:46:45.272Z,27.50
2022-08-16T08:51:18.998Z,28.10
2022-08-16T08:55:36.329Z,28.30
2022-08-16T08:59:55.087Z,28.90
2022-08-16T09:04:17.339Z,28.00
2022-08-16T09:08:35.802Z,28.80
2022-08-16T09:12:53.197Z,28.80
2022-08-16T09:17:17.629Z,29.30
2022-08-16T09:21:56.174Z,29.30
2022-08-16T09:26:44.273Z,29.70
2022-08-16T09:30:55.437Z,28.40
2022-08-16T09:35:12.630Z,27.30
2022-08-16T09:39:41.029Z,28.20
2022-08-16T09:45:08.988Z,29.70
2022-08-16T09:48:44.658Z,30.90
2022-08-16T09:53:15.580Z,30.60
2022-08-16T09:57:34.706Z,32.30
2022-08-16T10:01:52.703Z,31.50
2022-08-16T10:06:11.742Z,31.00
2022-08-16T10:10:30.406Z,31.00
2022-08-16T10:14:48.362Z,31.80
2022-08-16T10:19:06.893Z,29.90
2022-08-16T10:23:25.011Z,29.00
2022-08-16T10:27:53.292Z,27.60
2022-08-16T10:32:20.933Z,30.10
2022-08-16T10:36:39.678Z,31.90
2022-08-16T10:40:57.988Z,32.10
2022-08-16T10:45:18.698Z,32.80
2022-08-16T10:49:36.598Z,33.10
2022-08-16T10:53:54.883Z,34.00
2022-08-16T10:58:17.089Z,31.30
2022-08-16T11:02:59.116Z,32.70
2022-08-16T11:17:02.652Z,30.60
2022-08-16T11:21:05.586Z,31.40
2022-08-16T11:30:05.302Z,29.80
2022-08-16T11:34:31.832Z,32.10
2022-08-16T11:39:04.559Z,31.70
2022-08-16T11:43:34.036Z,33.00
2022-08-16T11:47:51.235Z,33.00
2022-08-16T11:52:09.707Z,33.10
2022-08-16T11:56:39.845Z,33.10
2022-08-16T12:01:04.479Z,32.80
2022-08-16T12:05:23.267Z,34.00
2022-08-16T12:09:43.319Z,34.50
2022-08-16T12:14:04.656Z,33.80
2022-08-16T12:18:22.400Z,33.60
2022-08-16T12:22:39.996Z,33.50
2022-08-16T12:27:00.040Z,33.60
2022-08-16T12:31:17.879Z,33.50
2022-08-16T12:35:36.876Z,33.50
2022-08-16T12:39:56.374Z,34.20
2022-08-16T12:44:19.599Z,34.20
2022-08-16T12:48:56.311Z,34.20
2022-08-16T12:53:14.483Z,34.40
2022-08-16T12:57:36.644Z,34.80
2022-08-16T13:01:58.526Z,32.60
2022-08-16T13:06:19.884Z,30.50
2022-08-16T13:10:39.293Z,29.70
2022-08-16T13:14:56.682Z,29.30
2022-08-16T13:19:13.837Z,29.00
2022-08-16T13:23:32.848Z,29.00
2022-08-16T13:28:03.054Z,29.60
2022-08-16T13:32:40.169Z,30.10
2022-08-16T13:36:57.876Z,29.70
2022-08-16T13:41:15.415Z,29.40
2022-08-16T13:45:36.355Z,29.30
2022-08-16T13:49:54.162Z,29.60
2022-08-16T13:54:11.471Z,29.60
2022-08-16T13:58:36.758Z,29.60
2022-08-16T14:02:59.183Z,30.50
2022-08-16T14:07:19.965Z,29.90
2022-08-16T14:11:41.756Z,29.70
2022-08-16T14:15:59.125Z,29.80
2022-08-16T14:20:19.413Z,29.40
2022-08-16T14:24:38.578Z,29.20
2022-08-16T14:29:01.265Z,29.10
2022-08-16T14:33:20.923Z,29.10
2022-08-16T14:37:39.913Z,29.00
2022-08-16T14:42:13.506Z,28.70
2022-08-16T14:46:30.976Z,28.60
2022-08-16T14:50:48.210Z,28.40
2022-08-16T14:55:06.259Z,28.10
2022-08-16T14:59:24.341Z,28.20
2022-08-16T15:03:44.535Z,28.30
2022-08-16T15:08:03.301Z,28.60
2022-08-16T15:12:26.623Z,28.90
2022-08-16T15:16:47.922Z,28.90
2022-08-16T15:21:05.900Z,29.00
2022-08-16T15:25:33.146Z,29.70
2022-08-16T15:29:52.173Z,29.90
2022-08-16T15:34:19.102Z,30.40
2022-08-16T15:39:02.499Z,29.90
2022-08-16T15:43:16.407Z,29.60
2022-08-16T15:47:35.032Z,29.40
2022-08-16T15:51:54.169Z,29.30
2022-08-16T15:56:11.634Z,29.50
2022-08-16T16:00:31.216Z,28.60
2022-08-16T16:04:50.332Z,28.80
2022-08-16T16:09:12.088Z,29.10
2022-08-16T16:13:29.295Z,29.30
2022-08-16T16:17:51.054Z,29.00
2022-08-16T16:22:09.566Z,28.80
2022-08-16T16:26:26.982Z,28.60
2022-08-16T16:30:45.535Z,28.40
2022-08-16T16:35:06.007Z,27.80
2022-08-16T16:39:23.240Z,27.40
2022-08-16T16:43:42.953Z,27.10
2022-08-16T16:48:12.073Z,26.90
2022-08-16T16:52:43.676Z,26.70
2022-08-16T16:57:03.377Z,27.00
2022-08-16T17:01:24.079Z,26.80
2022-08-16T17:06:03.239Z,26.60
2022-08-16T17:10:46.228Z,26.30
2022-08-16T17:15:07.364Z,26.20
2022-08-16T17:19:31.669Z,26.00
2022-08-16T17:23:58.838Z,25.90
2022-08-16T17:28:58.530Z,25.70
2022-08-16T17:33:04.940Z,25.60
2022-08-16T17:37:42.375Z,25.40
2022-08-16T17:42:08.099Z,25.20
2022-08-16T17:46:41.803Z,24.90
2022-08-16T17:51:04.373Z,24.70
2022-08-16T17:55:25.758Z,24.50
2022-08-16T17:59:43.147Z,24.20
2022-08-16T18:04:07.148Z,24.10
2022-08-16T18:08:27.101Z,24.10
2022-08-16T18:12:55.330Z,24.00
2022-08-16T18:17:13.145Z,23.90
2022-08-16T18:21:49.218Z,23.70
2022-08-16T18:26:07.204Z,23.60
2022-08-16T18:30:24.568Z,23.30
2022-08-16T18:34:42.545Z,23.20
2022-08-16T18:38:59.743Z,23.10
2022-08-16T18:43:20.139Z,23.00
2022-08-16T18:47:57.501Z,22.80
2022-08-16T18:52:24.973Z,22.70
2022-08-16T18:56:55.593Z,22.60
2022-08-16T19:01:15.133Z,22.60
2022-08-16T19:05:36.056Z,22.50
2022-08-16T19:09:53.251Z,22.40
2022-08-16T19:14:11.106Z,22.40
2022-08-16T19:18:30.538Z,22.40
2022-08-16T19:23:05.777Z,22.30
2022-08-16T19:27:32.519Z,22.30
2022-08-16T19:31:51.159Z,22.30
2022-08-16T19:36:16.976Z,22.20
2022-08-16T19:40:45.791Z,22.20
2022-08-16T19:45:05.924Z,22.10
2022-08-16T19:49:23.092Z,22.10
2022-08-16T19:53:40.241Z,22.10
2022-08-16T19:57:57.993Z,22.00
2022-08-16T20:02:35.787Z,22.00
2022-08-16T20:06:54.753Z,22.00
2022-08-16T20:11:11.903Z,22.00
2022-08-16T20:15:31.029Z,21.70
2022-08-16T20:19:48.225Z,21.50
2022-08-16T20:24:32.893Z,21.50
2022-08-16T20:28:53.992Z,21.40
2022-08-16T20:33:14.136Z,21.40
2022-08-16T20:37:33.049Z,21.40
2022-08-16T20:41:50.562Z,21.20
2022-08-16T20:46:07.904Z,21.10
2022-08-16T20:50:26.395Z,21.00
2022-08-16T20:54:44.692Z,20.90
2022-08-16T20:59:02.294Z,20.80
2022-08-16T21:03:19.526Z,20.80
2022-08-16T21:07:37.279Z,20.70
2022-08-16T21:11:56.450Z,20.50
2022-08-16T21:16:16.367Z,20.50
2022-08-16T21:20:34.019Z,20.50
2022-08-16T21:24:54.051Z,20.50
2022-08-16T21:29:14.237Z,20.40
2022-08-16T21:33:34.498Z,20.40
2022-08-16T21:38:00.104Z,20.30
2022-08-16T21:42:36.532Z,20.20
2022-08-16T21:46:53.901Z,20.00
2022-08-16T21:51:14.998Z,19.80
2022-08-16T21:55:32.260Z,19.80
2022-08-16T21:59:51.492Z,19.70
2022-08-16T22:04:36.688Z,19.70
2022-08-16T22:08:51.111Z,19.60
2022-08-16T22:13:19.939Z,19.40
2022-08-16T22:17:37.436Z,19.20
2022-08-16T22:21:55.600Z,19.10
2022-08-16T22:26:14.646Z,18.90
2022-08-16T22:30:31.860Z,18.80
2022-08-16T22:34:50.181Z,18.80
2022-08-16T22:39:10.511Z,18.60
2022-08-16T22:43:27.942Z,18.50
2022-08-16T22:47:45.142Z,18.40
2022-08-16T22:52:09.654Z,18.40
2022-08-16T22:56:27.435Z,18.30
2022-08-16T23:00:45.137Z,18.10
2022-08-16T23:05:02.669Z,18.10
2022-08-16T23:09:20.175Z,17.90
2022-08-16T23:13:37.824Z,17.70
2022-08-16T23:18:09.448Z,17.70
2022-08-16T23:22:26.596Z,17.70
2022-08-16T23:26:48.463Z,17.50
2022-08-16T23:31:07.140Z,17.30
2022-08-16T23:35:27.454Z,17.30
2022-08-16T23:40:02.837Z,17.20
2022-08-16T23:44:42.325Z,17.20
2022-08-16T23:49:45.076Z,17.10
2022-08-16T23:53:37.901Z,17.10
2022-08-16T23:57:55.299Z,17.00
